createdAt,value
2019-02-18T00:00:39.188Z,5.19
2019-02-18T00:01:40.434Z,5.18
2019-02-18T00:02:41.141Z,5.29
2019-02-18T00:03:42.387Z,5.23
2019-02-18T00:04:44.070Z,5.22
2019-02-18T00:05:44.567Z,5.18
2019-02-18T00:06:45.280Z,5.23
2019-02-18T00:07:46.245Z,5.08
2019-02-18T00:08:46.948Z,5.16
2019-02-18T00:09:48.446Z,5.05
2019-02-18T00:10:49.413Z,5.08
2019-02-18T00:11:50.374Z,5.19
2019-02-18T00:12:51.078Z,5.08
2019-02-18T00:13:51.780Z,5.16
2019-02-18T00:14:53.187Z,5.05
2019-02-18T00:15:54.323Z,5.18
2019-02-18T00:16:55.296Z,5.2
2019-02-18T00:17:55.996Z,5.12
2019-02-18T00:18:56.963Z,5.18
2019-02-18T00:19:58.376Z,5.15
2019-02-18T00:20:59.513Z,5.04
2019-02-18T00:22:00.480Z,5.16
2019-02-18T00:23:01.455Z,5.1
2019-02-18T00:24:02.145Z,5.01
2019-02-18T00:25:02.852Z,5.04
2019-02-18T00:26:03.665Z,5.04
2019-02-18T00:27:04.079Z,5.04
2019-02-18T00:28:05.328Z,4.95
2019-02-18T00:29:05.736Z,5
2019-02-18T00:30:06.146Z,5.04
2019-02-18T00:31:06.842Z,5.02
2019-02-18T00:32:07.807Z,5.02
2019-02-18T00:33:09.105Z,4.97
2019-02-18T00:34:09.514Z,5.02
2019-02-18T00:35:10.484Z,5.02
2019-02-18T00:36:11.323Z,5.07
2019-02-18T00:37:12.452Z,5.01
2019-02-18T00:38:13.870Z,5
2019-02-18T00:39:13.834Z,5.02
2019-02-18T00:40:15.248Z,5.05
2019-02-18T00:41:15.382Z,5.02
2019-02-18T00:42:16.076Z,5.13
2019-02-18T00:43:16.757Z,5.02
2019-02-18T00:44:17.728Z,5.13
2019-02-18T00:45:18.413Z,5.08
2019-02-18T00:46:18.957Z,5.1
2019-02-18T00:47:19.920Z,5.12
2019-02-18T00:48:20.889Z,5.05
2019-02-18T00:49:21.590Z,5.15
2019-02-18T00:50:22.552Z,5.18
2019-02-18T00:51:22.800Z,5.23
2019-02-18T00:52:24.055Z,5.23
2019-02-18T00:53:24.182Z,5.19
2019-02-18T00:54:25.540Z,5.25
2019-02-18T00:55:25.523Z,5.29
2019-02-18T00:56:26.365Z,5.28
2019-02-18T00:57:27.325Z,5.28
2019-02-18T00:58:27.454Z,5.23
2019-02-18T00:59:28.764Z,5.29
2019-02-18T01:00:29.474Z,5.18
2019-02-18T01:01:30.607Z,5.15
2019-02-18T01:02:32.020Z,5.08
2019-02-18T01:03:32.429Z,5.07
2019-02-18T01:04:32.834Z,5.07
2019-02-18T01:05:33.521Z,4.98
2019-02-18T01:06:34.192Z,5.04
2019-02-18T01:07:36.784Z,4.97
2019-02-18T01:08:37.742Z,5.05
2019-02-18T01:09:38.148Z,4.95
2019-02-18T01:10:38.555Z,4.83
2019-02-18T01:11:39.521Z,4.89
2019-02-18T01:12:40.616Z,4.87
2019-02-18T01:13:41.650Z,4.9
2019-02-18T01:14:42.727Z,4.84
2019-02-18T01:15:43.311Z,4.89
2019-02-18T01:16:44.483Z,4.94
2019-02-18T01:17:45.446Z,4.83
2019-02-18T01:18:45.587Z,4.78
2019-02-18T01:19:47.000Z,4.79
2019-02-18T01:20:48.133Z,4.75
2019-02-18T01:21:49.373Z,4.71
2019-02-18T01:22:49.996Z,4.74
2019-02-18T01:23:50.964Z,4.67
2019-02-18T01:24:51.954Z,4.66
2019-02-18T01:25:52.911Z,4.71
2019-02-18T01:26:53.927Z,4.68
2019-02-18T01:27:54.172Z,4.71
2019-02-18T01:28:55.217Z,4.78
2019-02-18T01:29:56.183Z,4.82
2019-02-18T01:30:56.604Z,4.76
2019-02-18T01:31:57.561Z,4.92
2019-02-18T01:32:57.974Z,4.89
2019-02-18T01:33:58.935Z,4.89
2019-02-18T01:34:59.346Z,4.89
2019-02-18T01:36:00.516Z,4.89
2019-02-18T01:37:00.357Z,4.9
2019-02-18T01:38:01.089Z,5
2019-02-18T01:39:01.496Z,4.9
2019-02-18T01:40:02.185Z,4.92
2019-02-18T01:41:02.874Z,4.9
2019-02-18T01:42:03.911Z,4.95
2019-02-18T01:43:04.600Z,4.97
2019-02-18T01:44:05.286Z,4.87
2019-02-18T01:45:06.249Z,4.87
2019-02-18T01:46:06.382Z,4.86
2019-02-18T01:47:06.803Z,4.86
2019-02-18T01:48:07.252Z,4.9
2019-02-18T01:49:07.660Z,4.83
2019-02-18T01:50:09.122Z,4.92
2019-02-18T01:51:10.087Z,4.82
2019-02-18T01:52:10.340Z,4.84
2019-02-18T01:53:10.469Z,4.92
2019-02-18T01:54:11.440Z,4.76
2019-02-18T01:55:12.414Z,4.79
2019-02-18T01:56:13.187Z,4.82
2019-02-18T01:57:14.027Z,4.79
2019-02-18T01:58:14.434Z,4.78
2019-02-18T01:59:14.842Z,4.87
2019-02-18T02:00:15.807Z,4.92
2019-02-18T02:01:16.514Z,4.9
2019-02-18T02:02:16.920Z,4.86
2019-02-18T02:03:18.336Z,4.87
2019-02-18T02:04:18.749Z,4.84
2019-02-18T02:05:20.299Z,4.83
2019-02-18T02:06:20.262Z,4.84
2019-02-18T02:07:21.353Z,4.83
2019-02-18T02:08:22.040Z,4.82
2019-02-18T02:09:22.798Z,4.86
2019-02-18T02:10:23.507Z,4.9
2019-02-18T02:11:23.655Z,4.82
2019-02-18T02:12:25.086Z,4.87
2019-02-18T02:13:25.491Z,4.82
2019-02-18T02:14:26.257Z,4.87
2019-02-18T02:15:26.500Z,4.89
2019-02-18T02:16:27.256Z,4.9
2019-02-18T02:17:27.376Z,4.86
2019-02-18T02:18:27.796Z,5
2019-02-18T02:19:27.927Z,5
2019-02-18T02:20:28.618Z,4.97
2019-02-18T02:21:30.142Z,5.12
2019-02-18T02:22:30.441Z,5.08
2019-02-18T02:23:31.682Z,5.04
2019-02-18T02:24:32.650Z,5.05
2019-02-18T02:25:33.612Z,5.12
2019-02-18T02:26:34.019Z,5.16
2019-02-18T02:27:35.990Z,5.08
2019-02-18T02:28:35.670Z,5.04
2019-02-18T02:29:36.077Z,5.07
2019-02-18T02:30:37.171Z,5.04
2019-02-18T02:31:37.579Z,5.05
2019-02-18T02:32:38.271Z,5.07
2019-02-18T02:33:38.410Z,4.98
2019-02-18T02:34:39.833Z,5.05
2019-02-18T02:35:40.812Z,5.02
2019-02-18T02:36:41.219Z,4.98
2019-02-18T02:37:41.696Z,5
2019-02-18T02:38:41.956Z,4.94
2019-02-18T02:39:42.645Z,5.01
2019-02-18T02:40:43.332Z,5.04
2019-02-18T02:41:44.017Z,5.04
2019-02-18T02:42:46.165Z,4.97
2019-02-18T02:43:46.706Z,5.02
2019-02-18T02:44:47.025Z,4.95
2019-02-18T02:45:47.717Z,4.84
2019-02-18T02:46:48.703Z,4.87
2019-02-18T02:47:49.168Z,4.95
2019-02-18T02:48:50.408Z,4.78
2019-02-18T02:49:51.134Z,4.78
2019-02-18T02:50:52.020Z,4.79
2019-02-18T02:51:52.289Z,4.84
2019-02-18T02:52:52.708Z,4.78
2019-02-18T02:53:53.694Z,4.82
2019-02-18T02:54:54.383Z,4.75
2019-02-18T02:55:55.352Z,4.78
2019-02-18T02:56:56.061Z,4.76
2019-02-18T02:57:56.501Z,4.82
2019-02-18T02:58:57.550Z,4.84
2019-02-18T02:59:58.253Z,4.87
2019-02-18T03:00:59.535Z,4.76
2019-02-18T03:01:59.786Z,4.74
2019-02-18T03:03:00.494Z,4.92
2019-02-18T03:04:01.206Z,4.9
2019-02-18T03:05:02.029Z,4.76
2019-02-18T03:06:03.119Z,4.83
2019-02-18T03:07:03.876Z,4.82
2019-02-18T03:08:05.523Z,4.79
2019-02-18T03:09:06.213Z,4.79
2019-02-18T03:10:07.584Z,4.75
2019-02-18T03:11:08.269Z,4.82
2019-02-18T03:12:08.961Z,4.83
2019-02-18T03:13:09.436Z,4.75
2019-02-18T03:14:10.402Z,4.78
2019-02-18T03:15:11.644Z,4.78
2019-02-18T03:16:11.900Z,4.78
2019-02-18T03:17:13.184Z,4.76
2019-02-18T03:18:13.903Z,4.87
2019-02-18T03:19:14.599Z,4.82
2019-02-18T03:20:15.416Z,4.83
2019-02-18T03:21:16.106Z,4.92
2019-02-18T03:22:17.372Z,4.84
2019-02-18T03:23:17.336Z,4.79
2019-02-18T03:24:17.762Z,4.87
2019-02-18T03:25:18.455Z,4.83
2019-02-18T03:26:19.720Z,4.82
2019-02-18T03:27:20.183Z,4.82
2019-02-18T03:28:21.303Z,4.83
2019-02-18T03:29:22.541Z,4.83
2019-02-18T03:30:23.665Z,4.87
2019-02-18T03:31:24.582Z,4.87
2019-02-18T03:32:25.502Z,4.92
2019-02-18T03:33:26.916Z,4.83
2019-02-18T03:34:26.667Z,4.86
2019-02-18T03:35:27.361Z,4.84
2019-02-18T03:36:27.488Z,4.78
2019-02-18T03:37:29.053Z,4.84
2019-02-18T03:38:32.835Z,4.79
2019-02-18T03:39:34.364Z,4.83
2019-02-18T03:40:35.094Z,4.79
2019-02-18T03:41:35.230Z,4.75
2019-02-18T03:42:36.244Z,4.75
2019-02-18T03:43:36.956Z,4.86
2019-02-18T03:44:37.931Z,4.76
2019-02-18T03:45:38.351Z,4.79
2019-02-18T03:46:38.765Z,4.68
2019-02-18T03:47:39.732Z,4.71
2019-02-18T03:48:41.091Z,4.64
2019-02-18T03:49:41.772Z,4.71
2019-02-18T03:50:42.603Z,4.56
2019-02-18T03:51:42.573Z,4.63
2019-02-18T03:52:43.869Z,4.53
2019-02-18T03:53:44.284Z,4.63
2019-02-18T03:54:45.013Z,4.57
2019-02-18T03:55:45.430Z,4.61
2019-02-18T03:56:46.406Z,4.56
2019-02-18T03:57:46.962Z,4.52
2019-02-18T03:58:48.218Z,4.5
2019-02-18T03:59:48.456Z,4.43
2019-02-18T04:00:48.438Z,4.48
2019-02-18T04:01:48.987Z,4.57
2019-02-18T04:02:49.672Z,4.53
2019-02-18T04:03:50.661Z,4.57
2019-02-18T04:04:51.030Z,4.67
2019-02-18T04:05:52.007Z,4.58
2019-02-18T04:06:51.965Z,4.66
2019-02-18T04:07:53.217Z,4.63
2019-02-18T04:08:53.354Z,4.74
2019-02-18T04:09:54.044Z,4.7
2019-02-18T04:10:55.007Z,4.68
2019-02-18T04:11:55.133Z,4.67
2019-02-18T04:12:56.092Z,4.6
2019-02-18T04:13:57.340Z,4.58
2019-02-18T04:14:57.330Z,4.61
2019-02-18T04:15:57.736Z,4.66
2019-02-18T04:16:58.453Z,4.63
2019-02-18T04:17:59.149Z,4.66
2019-02-18T04:18:59.561Z,4.67
2019-02-18T04:20:01.244Z,4.63
2019-02-18T04:21:01.228Z,4.63
2019-02-18T04:22:02.471Z,4.66
2019-02-18T04:23:02.709Z,4.7
2019-02-18T04:24:02.783Z,4.67
2019-02-18T04:25:04.311Z,4.67
2019-02-18T04:26:04.718Z,4.58
2019-02-18T04:27:05.848Z,4.64
2019-02-18T04:28:07.274Z,4.53
2019-02-18T04:29:08.866Z,4.53
2019-02-18T04:30:09.843Z,4.66
2019-02-18T04:31:10.544Z,4.78
2019-02-18T04:32:11.799Z,4.71
2019-02-18T04:33:12.046Z,4.6
2019-02-18T04:34:13.005Z,4.68
2019-02-18T04:35:14.525Z,4.58
2019-02-18T04:36:15.351Z,4.6
2019-02-18T04:37:15.878Z,4.46
2019-02-18T04:38:16.292Z,4.39
2019-02-18T04:39:17.032Z,4.25
2019-02-18T04:40:17.445Z,4.28
2019-02-18T04:41:18.249Z,4.3
2019-02-18T04:42:19.505Z,4.22
2019-02-18T04:43:19.474Z,4.32
2019-02-18T04:44:21.103Z,4.34
2019-02-18T04:45:21.800Z,4.49
2019-02-18T04:46:22.216Z,4.46
2019-02-18T04:47:22.826Z,4.32
2019-02-18T04:48:23.239Z,4.38
2019-02-18T04:49:24.395Z,4.38
2019-02-18T04:50:24.812Z,4.43
2019-02-18T04:51:26.080Z,4.46
2019-02-18T04:52:26.781Z,4.43
2019-02-18T04:53:27.474Z,4.43
2019-02-18T04:54:28.449Z,4.49
2019-02-18T04:55:29.137Z,4.53
2019-02-18T04:56:30.128Z,4.46
2019-02-18T04:57:32.550Z,4.42
2019-02-18T04:58:32.972Z,4.48
2019-02-18T04:59:34.447Z,4.42
2019-02-18T05:00:34.693Z,4.25
2019-02-18T05:01:35.695Z,4.39
2019-02-18T05:02:36.111Z,4.36
2019-02-18T05:03:36.393Z,4.36
2019-02-18T05:04:37.426Z,4.27
2019-02-18T05:05:38.114Z,4.34
2019-02-18T05:06:38.806Z,4.42
2019-02-18T05:07:39.637Z,4.32
2019-02-18T05:08:39.678Z,4.38
2019-02-18T05:09:41.131Z,4.36
2019-02-18T05:10:42.674Z,4.34
2019-02-18T05:11:42.925Z,4.36
2019-02-18T05:12:44.187Z,4.36
2019-02-18T05:13:47.223Z,4.38
2019-02-18T05:14:48.468Z,4.36
2019-02-18T05:15:49.212Z,4.38
2019-02-18T05:16:49.922Z,4.31
2019-02-18T05:17:50.360Z,4.38
2019-02-18T05:18:51.067Z,4.34
2019-02-18T05:19:51.902Z,4.36
2019-02-18T05:20:52.936Z,4.43
2019-02-18T05:21:52.912Z,4.38
2019-02-18T05:22:53.889Z,4.39
2019-02-18T05:23:54.589Z,4.46
2019-02-18T05:24:55.286Z,4.48
2019-02-18T05:25:56.016Z,4.31
2019-02-18T05:26:56.977Z,4.34
2019-02-18T05:27:57.389Z,4.22
2019-02-18T05:28:58.387Z,4.18
2019-02-18T05:29:59.420Z,4.13
2019-02-18T05:31:00.062Z,4.07
2019-02-18T05:32:01.324Z,4.07
2019-02-18T05:33:02.057Z,4.1
2019-02-18T05:34:03.058Z,4.1
2019-02-18T05:35:04.040Z,4.06
2019-02-18T05:36:04.747Z,4.03
2019-02-18T05:37:04.454Z,4.09
2019-02-18T05:38:06.388Z,4.04
2019-02-18T05:39:19.358Z,3.99
2019-02-18T05:40:20.067Z,4.03
2019-02-18T05:41:21.042Z,3.99
2019-02-18T05:42:21.746Z,4
2019-02-18T05:43:22.474Z,4.04
2019-02-18T05:44:23.727Z,4.13
2019-02-18T05:45:24.099Z,4.16
2019-02-18T05:46:24.821Z,4.22
2019-02-18T05:47:26.512Z,4.13
2019-02-18T05:48:26.779Z,4.27
2019-02-18T05:49:27.593Z,4.25
2019-02-18T05:50:28.140Z,4.32
2019-02-18T05:51:30.216Z,4.28
2019-02-18T05:52:31.250Z,4.34
2019-02-18T05:53:32.309Z,4.36
2019-02-18T05:54:33.006Z,4.34
2019-02-18T05:55:33.740Z,4.34
2019-02-18T05:56:34.104Z,4.38
2019-02-18T05:57:34.648Z,4.38
2019-02-18T05:58:35.392Z,4.38
2019-02-18T05:59:36.376Z,4.3
2019-02-18T06:00:37.235Z,4.3
2019-02-18T06:01:38.215Z,4.24
2019-02-18T06:02:38.754Z,4.31
2019-02-18T06:03:38.724Z,4.25
2019-02-18T06:04:39.431Z,4.28
2019-02-18T06:05:40.437Z,4.24
2019-02-18T06:06:41.129Z,4.3
2019-02-18T06:07:42.006Z,4.25
2019-02-18T06:08:42.702Z,4.2
2019-02-18T06:09:43.674Z,4.2
2019-02-18T06:10:45.075Z,4.21
2019-02-18T06:11:45.335Z,4.3
2019-02-18T06:12:46.908Z,4.24
2019-02-18T06:13:47.732Z,4.22
2019-02-18T06:14:47.996Z,4.31
2019-02-18T06:15:48.412Z,4.3
2019-02-18T06:16:49.117Z,4.32
2019-02-18T06:17:49.539Z,4.3
2019-02-18T06:18:50.525Z,4.28
2019-02-18T06:19:51.498Z,4.25
2019-02-18T06:20:52.149Z,4.4
2019-02-18T06:21:52.290Z,4.3
2019-02-18T06:22:53.360Z,4.38
2019-02-18T06:23:54.614Z,4.45
2019-02-18T06:24:55.310Z,4.43
2019-02-18T06:25:55.843Z,4.34
2019-02-18T06:26:56.381Z,4.3
2019-02-18T06:27:56.645Z,4.36
2019-02-18T06:28:56.344Z,4.34
2019-02-18T06:29:57.322Z,4.34
2019-02-18T06:30:58.437Z,4.34
2019-02-18T06:31:59.701Z,4.46
2019-02-18T06:33:02.596Z,4.53
2019-02-18T06:34:03.016Z,4.49
2019-02-18T06:35:03.717Z,4.57
2019-02-18T06:36:04.689Z,4.61
2019-02-18T06:37:05.411Z,4.63
2019-02-18T06:38:06.386Z,4.66
2019-02-18T06:39:06.932Z,4.83
2019-02-18T06:40:08.375Z,5
2019-02-18T06:41:08.638Z,5.02
2019-02-18T06:42:12.534Z,4.97
2019-02-18T06:43:10.175Z,4.78
2019-02-18T06:44:11.463Z,4.75
2019-02-18T06:45:13.891Z,4.92
2019-02-18T06:46:14.390Z,5.02
2019-02-18T06:47:16.187Z,5.07
2019-02-18T06:48:16.614Z,5.2
2019-02-18T06:49:17.605Z,5.47
2019-02-18T06:50:18.033Z,5.65
2019-02-18T06:51:18.879Z,5.72
2019-02-18T06:52:19.574Z,5.94
2019-02-18T06:53:20.548Z,5.92
2019-02-18T06:54:20.703Z,5.9
2019-02-18T06:55:21.407Z,5.99
2019-02-18T06:56:22.383Z,6.39
2019-02-18T06:57:23.426Z,6.71
2019-02-18T06:58:24.414Z,6.93
2019-02-18T06:59:24.569Z,7.39
2019-02-18T07:00:26.130Z,7.69
2019-02-18T07:01:27.358Z,7.9
2019-02-18T07:02:28.013Z,7.88
2019-02-18T07:03:29.262Z,7.81
2019-02-18T07:04:29.194Z,7.53
2019-02-18T07:05:30.392Z,7.33
2019-02-18T07:06:32.825Z,7.31
2019-02-18T07:07:32.160Z,7.15
2019-02-18T07:08:33.513Z,6.9
2019-02-18T07:09:33.539Z,6.67
2019-02-18T07:10:34.593Z,6.68
2019-02-18T07:11:34.968Z,6.68
2019-02-18T07:12:35.152Z,6.68
2019-02-18T07:13:35.651Z,6.74
2019-02-18T07:15:24.918Z,6.65
2019-02-18T07:16:24.918Z,6.44
2019-02-18T07:17:25.364Z,6.52
2019-02-18T07:18:26.617Z,6.39
2019-02-18T07:19:27.320Z,6.47
2019-02-18T07:20:28.150Z,6.6
2019-02-18T07:21:29.356Z,6.62
2019-02-18T07:22:30.400Z,6.57
2019-02-18T07:23:31.657Z,6.6
2019-02-18T07:24:31.980Z,6.72
2019-02-18T07:25:32.449Z,6.85
2019-02-18T07:26:33.583Z,6.85
2019-02-18T07:27:35.355Z,7.04
2019-02-18T07:28:35.457Z,7.56
2019-02-18T07:29:35.939Z,7.93
2019-02-18T07:30:36.953Z,8.38
2019-02-18T07:31:37.928Z,8.96
2019-02-18T07:32:41.613Z,9.44
2019-02-18T07:33:40.367Z,9.9
2019-02-18T07:34:41.643Z,10.34
2019-02-18T07:35:46.646Z,10.79
2019-02-18T07:35:54.384Z,10.98
2019-02-18T07:36:54.606Z,11.45
2019-02-18T07:37:55.920Z,12.28
2019-02-18T07:38:56.360Z,12.95
2019-02-18T07:40:03.723Z,13.2
2019-02-18T07:40:09.177Z,13.37
2019-02-18T07:41:10.292Z,13.83
2019-02-18T07:42:10.451Z,14.18
2019-02-18T07:43:11.196Z,14.59
2019-02-18T07:44:11.914Z,14.86
2019-02-18T07:45:12.895Z,14.97
2019-02-18T07:46:13.897Z,14.7
2019-02-18T07:47:14.351Z,14.38
2019-02-18T07:48:15.022Z,14.03
2019-02-18T07:49:19.427Z,13.76
2019-02-18T07:50:22.029Z,13.55
2019-02-18T07:51:22.750Z,13.45
2019-02-18T07:52:24.327Z,13.86
2019-02-18T07:53:25.099Z,14.28
2019-02-18T07:54:26.091Z,14.48
2019-02-18T07:55:27.073Z,14.51
2019-02-18T07:56:27.523Z,14.53
2019-02-18T07:57:27.950Z,14.38
2019-02-18T07:58:28.658Z,14.43
2019-02-18T07:59:29.094Z,14.58
2019-02-18T08:00:30.098Z,14.73
2019-02-18T08:01:30.939Z,14.52
2019-02-18T08:02:31.382Z,14.7
2019-02-18T08:03:32.095Z,14.77
2019-02-18T08:04:32.525Z,14.51
2019-02-18T08:05:33.299Z,14.15
2019-02-18T08:06:34.071Z,14.04
2019-02-18T08:07:35.051Z,14.08
2019-02-18T08:08:35.773Z,14.33
2019-02-18T08:09:36.837Z,14.44
2019-02-18T08:10:37.542Z,14.63
2019-02-18T08:11:42.707Z,14.77
2019-02-18T08:11:53.842Z,14.79
2019-02-18T08:12:05.482Z,14.79
2019-02-18T08:13:08.606Z,15.1
2019-02-18T08:13:18.677Z,15.18
2019-02-18T08:14:17.761Z,15.37
2019-02-18T08:15:18.411Z,15.76
2019-02-18T08:16:19.151Z,16.36
2019-02-18T08:17:19.884Z,16.8
2019-02-18T08:18:20.649Z,17.27
2019-02-18T08:19:21.161Z,17.8
2019-02-18T08:20:21.877Z,18.18
2019-02-18T08:21:25.883Z,18.15
2019-02-18T08:21:37.722Z,18.15
2019-02-18T08:21:49.587Z,18.21
2019-02-18T08:22:01.805Z,18.46
2019-02-18T08:22:12.019Z,18.15
2019-02-18T08:23:11.400Z,17.87
2019-02-18T08:24:12.006Z,17.32
2019-02-18T08:25:13.221Z,17.12
2019-02-18T08:26:13.653Z,16.87
2019-02-18T08:27:14.085Z,16.68
2019-02-18T08:28:14.868Z,16.92
2019-02-18T08:29:15.864Z,17.27
2019-02-18T08:30:16.410Z,17.75
2019-02-18T08:31:17.122Z,18.06
2019-02-18T08:32:18.110Z,18.31
2019-02-18T08:33:18.812Z,18.45
2019-02-18T08:34:20.298Z,18.57
2019-02-18T08:35:20.559Z,18.67
2019-02-18T08:36:20.987Z,18.74
2019-02-18T08:37:21.767Z,18.63
2019-02-18T08:38:22.476Z,18.24
2019-02-18T08:39:23.486Z,17.57
2019-02-18T08:40:24.412Z,16.76
2019-02-18T08:41:25.128Z,15.92
2019-02-18T08:42:25.561Z,15.57
2019-02-18T08:43:27.759Z,15.07
2019-02-18T08:44:28.461Z,14.89
2019-02-18T08:45:28.193Z,15.12
2019-02-18T08:46:32.193Z,15.59
2019-02-18T08:47:30.628Z,15.84
2019-02-18T08:48:31.901Z,15.92
2019-02-18T08:49:32.341Z,15.96
2019-02-18T08:50:33.052Z,15.9
2019-02-18T08:51:34.315Z,15.65
2019-02-18T08:52:38.821Z,15.55
2019-02-18T08:52:50.034Z,15.51
2019-02-18T08:53:01.441Z,15.36
2019-02-18T08:53:14.057Z,15.43
2019-02-18T08:54:16.358Z,15.37
2019-02-18T08:54:26.853Z,15.44
2019-02-18T08:54:37.830Z,15.43
2019-02-18T08:55:36.356Z,15.43
2019-02-18T08:56:36.817Z,15.81
2019-02-18T08:57:37.522Z,15.88
2019-02-18T08:58:38.572Z,15.98
2019-02-18T08:59:39.845Z,16.03
2019-02-18T09:00:40.402Z,15.84
2019-02-18T09:01:40.557Z,15.92
2019-02-18T09:02:41.852Z,15.55
2019-02-18T09:03:42.579Z,15.66
2019-02-18T09:04:43.291Z,16.09
2019-02-18T09:05:44.250Z,16.1
2019-02-18T09:06:44.682Z,16.06
2019-02-18T09:07:45.263Z,16.26
2019-02-18T09:08:46.033Z,16.22
2019-02-18T09:09:47.314Z,15.91
2019-02-18T09:10:48.023Z,15.66
2019-02-18T09:11:48.734Z,15.47
2019-02-18T09:12:49.533Z,15.41
2019-02-18T09:13:50.827Z,15.14
2019-02-18T09:14:50.973Z,14.92
2019-02-18T09:16:03.914Z,14.45
2019-02-18T09:17:04.561Z,14.23
2019-02-18T09:18:05.277Z,13.93
2019-02-18T09:19:05.704Z,14
2019-02-18T09:20:06.698Z,13.79
2019-02-18T09:21:07.466Z,14.04
2019-02-18T09:22:08.172Z,14.48
2019-02-18T09:23:09.220Z,15.08
2019-02-18T09:24:09.376Z,15.66
2019-02-18T09:25:10.525Z,16.41
2019-02-18T09:26:11.683Z,16.97
2019-02-18T09:27:12.689Z,17.39
2019-02-18T09:28:13.132Z,17.73
2019-02-18T09:29:14.247Z,18.18
2019-02-18T09:30:15.237Z,18.49
2019-02-18T09:31:16.391Z,18.88
2019-02-18T09:32:17.046Z,19.44
2019-02-18T09:33:17.767Z,19.9
2019-02-18T09:34:18.476Z,20.17
2019-02-18T09:35:19.213Z,20.15
2019-02-18T09:36:22.569Z,20.4
2019-02-18T09:37:20.896Z,20.29
2019-02-18T09:38:26.949Z,20.5
2019-02-18T09:38:33.908Z,20.63
2019-02-18T09:39:34.072Z,20.7
2019-02-18T09:40:52.400Z,20.67
2019-02-18T09:41:48.275Z,19.99
2019-02-18T09:42:49.003Z,20.26
2019-02-18T09:43:49.501Z,19.75
2019-02-18T09:44:50.354Z,19.96
2019-02-18T09:45:51.802Z,20.24
2019-02-18T09:46:52.322Z,20.29
2019-02-18T09:47:56.267Z,20
2019-02-18T09:48:56.982Z,19.48
2019-02-18T09:49:57.142Z,19.09
2019-02-18T09:51:00.876Z,19.11
2019-02-18T09:51:58.205Z,18.92
2019-02-18T09:52:58.919Z,18.91
2019-02-18T09:54:00.067Z,18.76
2019-02-18T09:55:00.807Z,18.7
2019-02-18T09:56:01.535Z,18.68
2019-02-18T09:57:02.532Z,18.74
2019-02-18T09:58:03.312Z,18.83
2019-02-18T09:59:03.305Z,18.73
2019-02-18T10:00:04.296Z,18.63
2019-02-18T10:01:05.042Z,18.71
2019-02-18T10:02:05.891Z,18.42
2019-02-18T10:03:07.336Z,18.02
2019-02-18T10:04:07.497Z,17.84
2019-02-18T10:05:08.210Z,17.41
2019-02-18T10:06:08.981Z,17.13
2019-02-18T10:07:09.469Z,17.31
2019-02-18T10:08:10.029Z,17.47
2019-02-18T10:09:10.747Z,17.31
2019-02-18T10:10:11.511Z,17.37
2019-02-18T10:11:12.219Z,17.53
2019-02-18T10:12:20.073Z,17.75
2019-02-18T10:12:26.487Z,17.68
2019-02-18T10:13:27.814Z,17.84
2019-02-18T10:14:28.581Z,18.16
2019-02-18T10:15:29.415Z,18.51
2019-02-18T10:16:29.512Z,18.42
2019-02-18T10:17:30.082Z,18.7
2019-02-18T10:18:30.913Z,18.94
2019-02-18T10:19:31.633Z,19.08
2019-02-18T10:20:31.927Z,19.09
2019-02-18T10:21:32.637Z,19.09
2019-02-18T10:22:33.690Z,19.37
2019-02-18T10:23:34.481Z,19.32
2019-02-18T10:24:35.233Z,19.32
2019-02-18T10:25:36.507Z,19.92
2019-02-18T10:26:37.161Z,19.9
2019-02-18T10:27:37.708Z,20.17
2019-02-18T10:28:38.699Z,20.15
2019-02-18T10:29:39.882Z,20.08
2019-02-18T10:30:40.339Z,19.84
2019-02-18T10:31:41.057Z,19.41
2019-02-18T10:32:41.517Z,19.64
2019-02-18T10:33:42.153Z,19.78
2019-02-18T10:34:42.864Z,19.35
2019-02-18T10:35:44.781Z,19.27
2019-02-18T10:36:44.353Z,19.44
2019-02-18T10:37:57.233Z,19.42
2019-02-18T10:38:57.816Z,19.08
2019-02-18T10:39:58.811Z,19.05
2019-02-18T10:41:11.539Z,19.53
2019-02-18T10:42:12.143Z,19.62
2019-02-18T10:43:13.304Z,19.23
2019-02-18T10:44:14.674Z,18.92
2019-02-18T10:45:14.515Z,18.98
2019-02-18T10:46:15.745Z,18.73
2019-02-18T10:47:16.487Z,18.51
2019-02-18T10:48:17.910Z,18.37
2019-02-18T10:49:24.559Z,18.41
2019-02-18T10:49:30.526Z,18.41
2019-02-18T10:50:32.420Z,18.3
2019-02-18T10:51:31.518Z,18.53
2019-02-18T10:52:32.327Z,18.41
2019-02-18T10:53:32.900Z,18.34
2019-02-18T10:54:34.018Z,18.21
2019-02-18T10:55:34.844Z,18.13
2019-02-18T10:56:35.568Z,18.45
2019-02-18T10:57:37.126Z,18.91
2019-02-18T10:58:38.161Z,18.74
2019-02-18T10:59:38.570Z,18.88
2019-02-18T11:00:38.767Z,19.09
2019-02-18T11:01:39.219Z,19.19
2019-02-18T11:02:40.523Z,19.27
2019-02-18T11:03:41.323Z,19.05
2019-02-18T11:04:42.059Z,18.82
2019-02-18T11:05:42.267Z,18.52
2019-02-18T11:06:43.573Z,17.95
2019-02-18T11:07:44.618Z,17.66
2019-02-18T11:08:45.365Z,17.49
2019-02-18T11:09:46.638Z,17.52
2019-02-18T11:10:47.653Z,17.39
2019-02-18T11:11:48.758Z,16.99
2019-02-18T11:12:49.961Z,16.94
2019-02-18T11:13:50.722Z,16.8
2019-02-18T11:14:51.793Z,17.05
2019-02-18T11:15:52.425Z,17.2
2019-02-18T11:16:53.229Z,17.37
2019-02-18T11:17:53.457Z,17.44
2019-02-18T11:18:54.224Z,17.38
2019-02-18T11:19:55.358Z,17.19
2019-02-18T11:20:56.126Z,17.01
2019-02-18T11:21:56.627Z,16.99
2019-02-18T11:22:57.155Z,17.13
2019-02-18T11:23:57.637Z,17.23
2019-02-18T11:24:59.113Z,17.19
2019-02-18T11:25:59.973Z,16.97
2019-02-18T11:27:00.991Z,16.91
2019-02-18T11:28:01.452Z,16.97
2019-02-18T11:29:02.945Z,16.91
2019-02-18T11:30:05.265Z,16.84
2019-02-18T11:31:04.672Z,16.83
2019-02-18T11:32:06.022Z,16.82
2019-02-18T11:33:07.029Z,16.66
2019-02-18T11:34:07.357Z,16.99
2019-02-18T11:35:08.414Z,17.22
2019-02-18T11:36:10.469Z,16.95
2019-02-18T11:37:10.966Z,16.98
2019-02-18T11:38:11.183Z,16.72
2019-02-18T11:39:11.640Z,16.72
2019-02-18T11:40:11.934Z,16.54
2019-02-18T11:41:13.403Z,16.55
2019-02-18T11:42:13.908Z,16.41
2019-02-18T11:43:15.119Z,16.39
2019-02-18T11:44:16.130Z,16.51
2019-02-18T11:45:20.774Z,16.39
2019-02-18T11:45:34.838Z,16.29
2019-02-18T11:45:44.232Z,16.26
2019-02-18T11:46:44.643Z,16.13
2019-02-18T11:47:44.962Z,16.18
2019-02-18T11:48:45.790Z,16.05
2019-02-18T11:49:46.507Z,16.1
2019-02-18T11:50:47.469Z,16
2019-02-18T11:51:49.523Z,15.92
2019-02-18T11:52:48.683Z,15.85
2019-02-18T11:53:49.407Z,16.02
2019-02-18T11:54:50.179Z,15.99
2019-02-18T11:55:50.648Z,16.05
2019-02-18T11:56:51.578Z,16.02
2019-02-18T11:57:52.024Z,16.13
2019-02-18T11:58:53.762Z,16.1
2019-02-18T11:59:55.066Z,16.18
2019-02-18T12:00:56.085Z,15.96
2019-02-18T12:01:57.984Z,15.92
2019-02-18T12:03:13.399Z,15.94
2019-02-18T12:03:23.443Z,15.98
2019-02-18T12:04:24.733Z,16
2019-02-18T12:04:35.259Z,16.02
2019-02-18T12:05:37.389Z,15.91
2019-02-18T12:06:37.182Z,15.88
2019-02-18T12:07:38.843Z,15.96
2019-02-18T12:08:39.844Z,15.85
2019-02-18T12:09:40.876Z,15.98
2019-02-18T12:10:42.120Z,16.03
2019-02-18T12:11:42.671Z,16.21
2019-02-18T12:12:44.100Z,16.17
2019-02-18T12:13:45.461Z,16.08
2019-02-18T12:14:45.977Z,16.09
2019-02-18T12:15:47.161Z,16.09
2019-02-18T12:16:48.361Z,16
2019-02-18T12:17:49.632Z,16.02
2019-02-18T12:18:49.129Z,16.06
2019-02-18T12:19:50.187Z,16.12
2019-02-18T12:20:51.169Z,16.26
2019-02-18T12:21:51.428Z,16.4
2019-02-18T12:22:53.417Z,16.68
2019-02-18T12:23:53.375Z,16.76
2019-02-18T12:24:54.804Z,17.07
2019-02-18T12:25:55.489Z,17.02
2019-02-18T12:26:56.280Z,17.16
2019-02-18T12:27:56.646Z,16.92
2019-02-18T12:28:56.467Z,16.95
2019-02-18T12:29:57.022Z,16.79
2019-02-18T12:30:58.583Z,16.76
2019-02-18T12:31:58.136Z,16.98
2019-02-18T12:32:58.332Z,17.05
2019-02-18T12:34:01.689Z,17.17
2019-02-18T12:34:13.940Z,17.16
2019-02-18T12:34:27.610Z,17.14
2019-02-18T12:34:39.343Z,17.13
2019-02-18T12:34:49.804Z,17.1
2019-02-18T12:35:39.625Z,17.05
2019-02-18T12:35:52.053Z,17.12
2019-02-18T12:36:03.755Z,17.12
2019-02-18T12:36:17.543Z,17.16
2019-02-18T12:36:29.948Z,17.17
2019-02-18T12:37:31.098Z,17.02
2019-02-18T12:38:32.804Z,17.13
2019-02-18T12:38:42.136Z,17.13
2019-02-18T12:39:42.330Z,17.22
2019-02-18T12:40:42.530Z,17.2
2019-02-18T12:41:50.141Z,17.17
2019-02-18T12:41:55.084Z,17.24
2019-02-18T12:42:55.783Z,17.38
2019-02-18T12:43:56.509Z,17.49
2019-02-18T12:44:57.971Z,17.42
2019-02-18T12:45:58.761Z,17.44
2019-02-18T12:47:00.085Z,17.17
2019-02-18T12:48:00.807Z,17.31
2019-02-18T12:49:01.365Z,17.28
2019-02-18T12:50:02.512Z,17.3
2019-02-18T12:51:02.952Z,17.39
2019-02-18T12:52:05.279Z,17.52
2019-02-18T12:53:05.322Z,17.41
2019-02-18T12:54:06.527Z,17.57
2019-02-18T12:55:08.500Z,17.66
2019-02-18T12:56:08.831Z,17.86
2019-02-18T12:57:09.036Z,18.09
2019-02-18T12:58:11.084Z,18.3